Time;durP1;ratioP1;P1;durP2;ratioP2;P2;SDS_P1;SDS_P2;PMS_P1;PMS_P2;Temp;Humidity;BMP_temperature;BMP_pressure;BME280_temperature;BME280_humidity;BME280_pressure;Samples;Min_cycle;Max_cycle;Signal;HPM_P1;HPM_P2
2021/11/06 00:00:17;;;;;;;1999.90;999.90;;;;;;;16.34;100.00;99528.16;5091821;28;20032;-33
2021/11/06 00:02:43;;;;;;;1999.90;999.90;;;;;;;16.37;100.00;99522.22;5091902;28;20036;-34
2021/11/06 00:05:09;;;;;;;1999.90;999.90;;;;;;;16.31;100.00;99529.56;5091878;28;20027;-34
2021/11/06 00:07:35;;;;;;;1999.90;999.90;;;;;;;16.33;100.00;99523.91;5091893;28;20028;-33
2021/11/06 00:10:01;;;;;;;1999.90;999.90;;;;;;;16.37;100.00;99517.66;5092138;28;20031;-34
2021/11/06 00:12:26;;;;;;;1999.90;999.90;;;;;;;16.35;100.00;99519.81;5091753;28;20104;-33
2021/11/06 00:14:52;;;;;;;1999.90;999.90;;;;;;;16.42;100.00;99514.09;5091844;28;20103;-33
2021/11/06 00:17:18;;;;;;;1999.90;999.90;;;;;;;16.43;100.00;99511.13;5092131;28;20571;-33
2021/11/06 00:19:44;;;;;;;1999.90;999.90;;;;;;;16.49;100.00;99509.19;5092009;28;20020;-34
2021/11/06 00:22:09;;;;;;;1999.90;999.90;;;;;;;16.59;100.00;99509.06;5091782;28;20115;-33
2021/11/06 00:24:35;;;;;;;1999.90;999.90;;;;;;;16.65;100.00;99514.34;5091703;28;20024;-33
2021/11/06 00:27:01;;;;;;;1999.90;999.90;;;;;;;16.73;100.00;99513.72;5092013;28;20032;-34
2021/11/06 00:29:27;;;;;;;1999.90;999.90;;;;;;;16.85;100.00;99516.00;5091612;28;20031;-33
2021/11/06 00:31:52;;;;;;;1999.90;999.90;;;;;;;16.86;100.00;99534.53;5091631;28;20039;-34
2021/11/06 00:34:18;;;;;;;1999.90;999.90;;;;;;;16.85;100.00;99535.63;5091584;28;20032;-33
2021/11/06 00:36:44;;;;;;;1999.90;999.90;;;;;;;16.87;100.00;99543.41;5091605;28;20028;-34
2021/11/06 00:39:10;;;;;;;1999.90;999.90;;;;;;;16.85;100.00;99549.06;5091504;28;20403;-34
2021/11/06 00:41:36;;;;;;;1999.90;999.90;;;;;;;16.74;100.00;99537.66;5091584;28;20032;-34
2021/11/06 00:44:02;;;;;;;1999.90;999.90;;;;;;;16.60;100.00;99555.56;5091511;28;20035;-34
2021/11/06 00:46:28;;;;;;;;;;;;;;;16.58;100.00;99553.19;5091968;28;20032;-33
2021/11/06 00:48:53;;;;;;;1999.90;999.90;;;;;;;16.54;100.00;99544.06;5091407;28;19927;-34
2021/11/06 00:51:19;;;;;;;1999.90;999.90;;;;;;;16.52;100.00;99548.94;5091345;28;20028;-34
2021/11/06 00:53:46;;;;;;;1999.90;999.90;;;;;;;16.53;100.00;99541.66;5091183;28;20135;-34
2021/11/06 00:56:12;;;;;;;1999.90;999.90;;;;;;;16.58;100.00;99541.63;5091733;28;20152;-34
2021/11/06 00:58:38;;;;;;;1999.90;999.90;;;;;;;16.55;100.00;99536.81;5091411;28;20504;-33
2021/11/06 01:01:03;;;;;;;1999.90;999.90;;;;;;;16.54;100.00;99536.00;5093816;28;20031;-34
2021/11/06 01:03:29;;;;;;;1999.90;999.90;;;;;;;16.60;100.00;99536.75;5095012;28;20020;-33
2021/11/06 01:05:55;;;;;;;1999.90;999.90;;;;;;;16.59;100.00;99537.81;5095312;28;20056;-33
2021/11/06 01:08:20;;;;;;;1999.90;999.90;;;;;;;16.72;100.00;99541.72;5094930;28;20472;-33
2021/11/06 01:10:46;;;;;;;1999.90;999.90;;;;;;;16.74;100.00;99551.09;5094803;28;20056;-34
2021/11/06 01:13:12;;;;;;;1999.90;999.90;;;;;;;16.72;100.00;99552.47;5095115;28;20117;-33
2021/11/06 01:15:38;;;;;;;;;;;;;;;16.66;100.00;99542.88;5095257;28;20543;-33
2021/11/06 01:18:04;;;;;;;1999.90;999.90;;;;;;;16.65;100.00;99549.34;5094760;28;20007;-34
2021/11/06 01:20:30;;;;;;;1999.90;999.90;;;;;;;16.59;100.00;99559.34;5094628;28;20034;-34
2021/11/06 01:22:57;;;;;;;1999.90;999.90;;;;;;;16.59;100.00;99562.03;5094893;28;20054;-34
2021/11/06 01:25:23;;;;;;;1999.90;999.90;;;;;;;16.60;100.00;99563.66;5095453;28;20024;-34
2021/11/06 01:27:49;;;;;;;;;;;;;;;16.58;100.00;99561.25;5095314;28;20035;-34
2021/11/06 01:30:16;;;;;;;1999.90;999.90;;;;;;;16.48;100.00;99580.19;5094753;28;19911;-34
2021/11/06 01:32:44;;;;;;;1999.90;999.90;;;;;;;16.44;100.00;99579.16;5094439;28;20024;-34
2021/11/06 01:35:11;;;;;;;1999.90;999.90;;;;;;;16.48;100.00;99574.81;5094500;28;20035;-34
2021/11/06 01:37:37;;;;;;;1999.90;999.90;;;;;;;16.43;100.00;99578.38;5094726;28;20032;-33
2021/11/06 01:40:06;;;;;;;1999.90;999.90;;;;;;;16.43;100.00;99577.56;5094312;28;20160;-34
2021/11/06 01:42:32;;;;;;;1999.90;999.90;;;;;;;16.41;100.00;99577.84;5094312;28;20111;-33
2021/11/06 01:44:58;;;;;;;1999.90;999.90;;;;;;;16.44;100.00;99582.66;5094194;28;20111;-34
2021/11/06 01:47:23;;;;;;;1999.90;999.90;;;;;;;16.41;100.00;99587.78;5093015;28;20036;-34
2021/11/06 01:49:49;;;;;;;1999.90;999.90;;;;;;;16.41;100.00;99594.00;5092857;28;20059;-34
2021/11/06 01:52:15;;;;;;;1999.90;999.90;;;;;;;16.37;100.00;99592.13;5093838;28;20595;-34
2021/11/06 01:54:41;;;;;;;1999.90;999.90;;;;;;;16.37;100.00;99597.50;5094413;28;20032;-33
2021/11/06 01:57:07;;;;;;;1999.90;999.90;;;;;;;16.35;100.00;99602.38;5094054;28;20040;-33
2021/11/06 01:59:32;;;;;;;1999.90;999.90;;;;;;;16.33;100.00;99596.50;5093923;28;20047;-33
2021/11/06 02:01:58;;;;;;;1999.90;999.90;;;;;;;16.27;100.00;99593.06;5093902;28;20058;-33
2021/11/06 02:04:25;;;;;;;1999.90;999.90;;;;;;;16.23;100.00;99592.03;5093906;28;20093;-34
2021/11/06 02:06:50;;;;;;;1999.90;999.90;;;;;;;16.18;100.00;99595.56;5094178;28;20020;-33
2021/11/06 02:09:16;;;;;;;1999.90;999.90;;;;;;;16.16;100.00;99602.28;5093780;28;20461;-34
2021/11/06 02:11:43;;;;;;;1999.90;999.90;;;;;;;16.16;100.00;99596.91;5094001;28;20028;-33
2021/11/06 02:14:09;;;;;;;1999.90;999.90;;;;;;;16.16;100.00;99603.09;5093590;28;20039;-34
2021/11/06 02:16:35;;;;;;;1999.90;999.90;;;;;;;16.16;100.00;99603.09;5093665;28;20059;-34
2021/11/06 02:19:03;;;;;;;1999.90;999.90;;;;;;;16.20;100.00;99606.03;5093611;28;20052;-33
2021/11/06 02:21:29;;;;;;;1999.90;999.90;;;;;;;16.21;100.00;99605.75;5093430;28;20563;-33
2021/11/06 02:23:55;;;;;;;;;;;;;;;16.20;100.00;99614.09;5094231;28;20028;-34
2021/11/06 02:26:21;;;;;;;1999.90;999.90;;;;;;;16.16;100.00;99624.59;5093422;28;19907;-33
2021/11/06 02:28:53;;;;;;;1999.90;999.90;;;;;;;16.09;100.00;99616.88;5093355;28;20024;-34
2021/11/06 02:31:20;;;;;;;1999.90;999.90;;;;;;;16.08;100.00;99622.53;5093288;28;20020;-33
2021/11/06 02:33:48;;;;;;;1999.90;999.90;;;;;;;16.08;100.00;99627.91;5093463;28;20028;-33
2021/11/06 02:36:14;;;;;;;1999.90;999.90;;;;;;;15.98;100.00;99628.78;5093245;28;20028;-33
2021/11/06 02:38:41;;;;;;;1999.90;999.90;;;;;;;15.98;100.00;99628.78;5093125;28;20684;-34
2021/11/06 02:41:07;;;;;;;1999.90;999.90;;;;;;;16.01;100.00;99643.56;5093080;28;20114;-34
2021/11/06 02:43:33;;;;;;;1999.90;999.90;;;;;;;15.96;100.00;99640.91;5093140;28;20157;-33
2021/11/06 02:45:58;;;;;;;1999.90;999.90;;;;;;;15.97;100.00;99642.50;5093371;28;20161;-33
2021/11/06 02:48:24;;;;;;;1999.90;999.90;;;;;;;15.96;100.00;99654.31;5093045;28;20512;-34
2021/11/06 02:50:50;;;;;;;1999.90;999.90;;;;;;;15.98;100.00;99654.88;5092897;28;20036;-33
2021/11/06 02:53:15;;;;;;;1999.90;999.90;;;;;;;15.97;100.00;99667.47;5092622;28;20050;-34
2021/11/06 02:55:41;;;;;;;1999.90;999.90;;;;;;;15.98;100.00;99660.25;5092888;28;20093;-33
2021/11/06 02:58:07;;;;;;;1999.90;999.90;;;;;;;15.95;100.00;99663.50;5092865;28;20081;-34
2021/11/06 03:00:33;;;;;;;1999.90;999.90;;;;;;;15.95;100.00;99660.81;5092712;28;20039;-33
2021/11/06 03:03:00;;;;;;;1999.90;999.90;;;;;;;15.91;100.00;99668.63;5092757;28;20031;-33
2021/11/06 03:05:26;;;;;;;1999.90;999.90;;;;;;;15.89;100.00;99668.09;5092999;28;20024;-33
2021/11/06 03:07:52;;;;;;;1999.90;999.90;;;;;;;15.87;100.00;99667.56;5093007;28;20478;-33
2021/11/06 03:10:18;;;;;;;1999.90;999.90;;;;;;;15.83;100.00;99674.59;5092856;28;20400;-34
2021/11/06 03:12:48;;;;;;;1999.90;999.90;;;;;;;15.82;100.00;99667.59;5092492;28;20039;-33
2021/11/06 03:15:15;;;;;;;1999.90;999.90;;;;;;;15.78;100.00;99677.28;5092510;28;20462;-33
2021/11/06 03:17:40;;;;;;;;;;;;;;;15.75;100.00;99679.44;5093214;28;20480;-33
2021/11/06 03:20:07;;;;;;;1999.90;999.90;;;;;;;15.71;100.00;99680.25;5092694;28;19976;-34
2021/11/06 03:22:34;;;;;;;1999.90;999.90;;;;;;;15.67;100.00;99673.84;5092045;28;20499;-33
2021/11/06 03:25:00;;;;;;;;;;;;;;;15.67;100.00;99687.28;5093102;28;20024;-34
2021/11/06 03:27:25;;;;;;;1999.90;999.90;;;;;;;15.63;100.00;99687.03;5092366;28;19961;-34
2021/11/06 03:29:51;;;;;;;1999.90;999.90;;;;;;;15.63;100.00;99681.66;5092354;28;20016;-33
2021/11/06 03:32:17;;;;;;;1999.90;999.90;;;;;;;15.61;100.00;99681.16;5092192;28;20039;-33
2021/11/06 03:34:43;;;;;;;1999.90;999.90;;;;;;;15.60;100.00;99682.22;5092775;28;20036;-34
2021/11/06 03:37:08;;;;;;;1999.90;999.90;;;;;;;15.55;100.00;99684.94;5092544;28;20499;-34
2021/11/06 03:39:36;;;;;;;1999.90;999.90;;;;;;;15.56;100.00;99676.59;5092524;28;20034;-34
2021/11/06 03:42:04;;;;;;;1999.90;999.90;;;;;;;15.51;100.00;99682.00;5092105;28;20105;-33
2021/11/06 03:44:29;;;;;;;1999.90;999.90;;;;;;;15.50;100.00;99691.13;5092145;28;20024;-34
2021/11/06 03:46:55;;;;;;;1999.90;999.90;;;;;;;15.46;100.00;99690.09;5092421;28;20020;-34
2021/11/06 03:49:21;;;;;;;1999.90;999.90;;;;;;;15.43;100.00;99698.69;5092421;28;20032;-34
2021/11/06 03:51:47;;;;;;;1999.90;999.90;;;;;;;15.39;100.00;99703.00;5092293;28;20494;-34
2021/11/06 03:54:13;;;;;;;1999.90;999.90;;;;;;;15.34;100.00;99698.47;5091742;28;20048;-33
2021/11/06 03:56:39;;;;;;;1999.90;999.90;;;;;;;15.27;100.00;99699.81;5091857;28;20039;-33
2021/11/06 03:59:05;;;;;;;;;;;;;;;15.11;100.00;99716.00;5092266;28;20099;-34
2021/11/06 04:01:32;;;;;;;1999.90;999.90;;;;;;;15.03;100.00;99711.19;5091860;28;19936;-34
2021/11/06 04:03:58;;;;;;;1999.90;999.90;;;;;;;15.09;100.00;99720.03;5092180;28;20381;-33
2021/11/06 04:06:23;;;;;;;;;;;;;;;15.09;100.00;99726.19;5092625;28;20465;-34
2021/11/06 04:08:51;;;;;;;1999.90;999.90;;;;;;;15.04;100.00;99721.63;5092142;28;19912;-33
2021/11/06 04:11:18;;;;;;;1999.90;999.90;;;;;;;15.03;100.00;99725.41;5092084;28;20115;-33
2021/11/06 04:13:44;;;;;;;1999.90;999.90;;;;;;;15.02;100.00;99721.13;5092052;28;20039;-33
2021/11/06 04:16:09;;;;;;;1999.90;999.90;;;;;;;15.04;100.00;99732.38;5091794;28;20540;-33
2021/11/06 04:18:35;;;;;;;1999.90;999.90;;;;;;;15.03;100.00;99724.59;5090943;28;20077;-34
2021/11/06 04:21:01;;;;;;;1999.90;999.90;;;;;;;15.06;100.00;99726.72;5091724;28;20384;-34
2021/11/06 04:23:26;;;;;;;1999.90;999.90;;;;;;;15.03;100.00;99730.78;5091702;28;20064;-33
2021/11/06 04:25:52;;;;;;;1999.90;999.90;;;;;;;14.97;100.00;99731.06;5091889;28;20054;-34
2021/11/06 04:28:18;;;;;;;1999.90;999.90;;;;;;;15.01;100.00;99737.50;5091672;28;20571;-33
2021/11/06 04:30:43;;;;;;;1999.90;999.90;;;;;;;14.96;100.00;99740.16;5091671;28;20036;-33
2021/11/06 04:33:09;;;;;;;1999.90;999.90;;;;;;;14.89;100.00;99745.84;5091906;28;20054;-33
2021/11/06 04:35:35;;;;;;;1999.90;999.90;;;;;;;14.84;100.00;99753.88;5093187;28;20504;-33
2021/11/06 04:38:01;;;;;;;1999.90;999.90;;;;;;;14.83;100.00;99750.41;5095583;28;20036;-33
2021/11/06 04:40:26;;;;;;;1999.90;999.90;;;;;;;14.86;100.00;99747.19;5095793;28;20055;-33
2021/11/06 04:42:52;;;;;;;1999.90;999.90;;;;;;;14.84;100.00;99740.47;5095369;28;20474;-33
2021/11/06 04:45:18;;;;;;;1999.90;999.90;;;;;;;14.90;100.00;99746.63;5095384;28;20035;-33
2021/11/06 04:47:43;;;;;;;1999.90;999.90;;;;;;;14.91;100.00;99757.09;5096202;28;20039;-33
2021/11/06 04:50:10;;;;;;;1999.90;999.90;;;;;;;14.91;100.00;99753.63;5095603;28;20054;-34
2021/11/06 04:52:37;;;;;;;1999.90;999.90;;;;;;;14.84;100.00;99743.97;5095131;28;20483;-34
2021/11/06 04:55:05;;;;;;;1999.90;999.90;;;;;;;14.84;100.00;99752.03;5095818;28;20099;-33
2021/11/06 04:57:31;;;;;;;1999.90;999.90;;;;;;;14.85;100.00;99747.44;5096236;28;20020;-34
2021/11/06 04:59:56;;;;;;;1999.90;999.90;;;;;;;14.88;100.00;99750.38;5095136;28;20425;-33
2021/11/06 05:02:22;;;;;;;1999.90;999.90;;;;;;;14.89;100.00;99761.94;5095316;28;20039;-33
2021/11/06 05:04:48;;;;;;;1999.90;999.90;;;;;;;14.88;100.00;99753.06;5095891;28;20457;-34
2021/11/06 05:07:15;;;;;;;1999.90;999.90;;;;;;;14.94;100.00;99758.44;5095048;28;20119;-33
2021/11/06 05:09:43;;;;;;;1999.90;999.90;;;;;;;14.99;100.00;99758.41;5094920;28;20108;-33
2021/11/06 05:12:10;;;;;;;1999.90;999.90;;;;;;;15.07;100.00;99763.25;5094763;28;20085;-33
2021/11/06 05:14:36;;;;;;;1999.90;999.90;;;;;;;15.12;100.00;99759.72;5095028;28;20407;-34
2021/11/06 05:17:02;;;;;;;1999.90;999.90;;;;;;;15.23;100.00;99761.31;5094770;28;20569;-34
2021/11/06 05:19:28;;;;;;;1999.90;999.90;;;;;;;15.33;100.00;99768.56;5094794;28;20024;-34
2021/11/06 05:21:54;;;;;;;1999.90;999.90;;;;;;;15.48;100.00;99773.84;5094858;28;20024;-33
2021/11/06 05:24:19;;;;;;;1999.90;999.90;;;;;;;15.61;100.00;99764.41;5095544;28;20379;-34
2021/11/06 05:26:45;;;;;;;1999.90;999.90;;;;;;;15.70;100.00;99770.81;5094523;28;20028;-34
2021/11/06 05:29:11;;;;;;;1999.90;999.90;;;;;;;15.85;100.00;99772.63;5094878;28;20080;-34
2021/11/06 05:31:38;;;;;;;1999.90;999.90;;;;;;;15.95;100.00;99785.22;5094507;28;20141;-33
2021/11/06 05:34:04;;;;;;;1999.90;999.90;;;;;;;16.04;100.00;99790.81;5094698;28;20534;-33
2021/11/06 05:36:31;;;;;;;1999.90;999.90;;;;;;;16.15;100.00;99795.06;5094773;28;20077;-33
2021/11/06 05:38:57;;;;;;;1999.90;999.90;;;;;;;16.23;100.00;99796.34;5094333;28;20034;-33
2021/11/06 05:41:22;;;;;;;1999.90;999.90;;;;;;;16.38;100.00;99804.31;5095138;28;20020;-33
2021/11/06 05:43:48;;;;;;;1999.90;999.90;;;;;;;16.50;100.00;99801.25;5094257;28;20054;-33
2021/11/06 05:46:16;;;;;;;1999.90;999.90;;;;;;;16.64;100.00;99811.41;5093911;28;20030;-33
2021/11/06 05:48:42;;;;;;;1999.90;999.90;;;;;;;16.71;100.00;99809.19;5094243;28;20024;-33
2021/11/06 05:51:07;;;;;;;1999.90;999.90;;;;;;;16.72;100.00;99805.41;5094092;28;20031;-34
2021/11/06 05:53:33;;;;;;;1999.90;999.90;;;;;;;16.80;100.00;99810.19;5093803;28;20469;-33
2021/11/06 05:55:58;;;;;;;1999.90;999.90;;;;;;;16.99;100.00;99822.94;5094183;28;20415;-33
2021/11/06 05:58:24;;;;;;;1999.90;999.90;;;;;;;17.04;100.00;99828.31;5094060;28;20039;-33
2021/11/06 06:00:51;;;;;;;1999.90;999.90;;;;;;;17.16;100.00;99831.41;5094319;28;20089;-33
2021/11/06 06:03:17;;;;;;;1999.90;999.90;;;;;;;17.28;100.00;99842.63;5093829;28;20024;-34
2021/11/06 06:05:44;;;;;;;1999.90;999.90;;;;;;;17.19;100.00;99833.53;5094120;28;20024;-33
2021/11/06 06:08:10;;;;;;;1999.90;999.90;;;;;;;17.22;100.00;99843.75;5093809;28;20036;-33
2021/11/06 06:10:36;;;;;;;1999.90;999.90;;;;;;;17.28;100.00;99841.78;5093799;28;20024;-33
2021/11/06 06:13:02;;;;;;;1999.90;999.90;;;;;;;17.29;100.00;99849.59;5093515;28;20043;-33
2021/11/06 06:15:27;;;;;;;1999.90;999.90;;;;;;;17.24;100.00;99841.56;5094022;28;20024;-33
2021/11/06 06:17:54;;;;;;;1999.90;999.90;;;;;;;17.30;100.00;99850.41;5093570;28;20119;-34
2021/11/06 06:20:21;;;;;;;1999.90;999.90;;;;;;;17.44;100.00;99845.13;5093635;28;20024;-33
2021/11/06 06:22:47;;;;;;;1999.90;999.90;;;;;;;17.55;100.00;99851.22;5093760;28;20016;-34
2021/11/06 06:25:14;;;;;;;1999.90;999.90;;;;;;;17.55;100.00;99854.72;5093778;28;20028;-33
2021/11/06 06:27:40;;;;;;;1999.90;999.90;;;;;;;17.47;100.00;99863.41;5093413;28;20035;-34
2021/11/06 06:30:09;;;;;;;1999.90;999.90;;;;;;;17.30;100.00;99864.66;5093406;28;20016;-34
2021/11/06 06:32:37;;;;;;;1999.90;999.90;;;;;;;17.40;100.00;99868.34;5093169;28;20491;-34
2021/11/06 06:35:04;;;;;;;1999.90;999.90;;;;;;;17.29;100.00;99870.34;5093217;28;20076;-34
2021/11/06 06:37:30;;;;;;;1999.90;999.90;;;;;;;17.28;100.00;99866.84;5093178;28;20028;-33
2021/11/06 06:39:56;;;;;;;1999.90;999.90;;;;;;;17.23;100.00;99874.97;5093133;28;20020;-34
2021/11/06 06:42:23;;;;;;;1999.90;999.90;;;;;;;17.35;100.00;99871.88;5093078;28;20093;-34
2021/11/06 06:44:50;;;;;;;1999.90;999.90;;;;;;;17.27;100.00;99876.00;5093309;28;20086;-33
2021/11/06 06:47:16;;;;;;;1999.90;999.90;;;;;;;17.19;100.00;99879.31;5093024;28;20085;-34
2021/11/06 06:49:42;;;;;;;1999.90;999.90;;;;;;;17.18;100.00;99875.03;5093859;28;20036;-33
2021/11/06 06:52:08;;;;;;;1999.90;999.90;;;;;;;17.14;100.00;99880.16;5092686;28;20148;-34
2021/11/06 06:54:34;;;;;;;1999.90;999.90;;;;;;;17.13;100.00;99877.75;5093161;28;20032;-33
2021/11/06 06:57:00;;;;;;;1999.90;999.90;;;;;;;17.18;100.00;99877.72;5092813;28;20412;-33
2021/11/06 06:59:26;;;;;;;1999.90;999.90;;;;;;;17.23;100.00;99879.56;5092192;28;20022;-33
2021/11/06 07:01:51;;;;;;;1999.90;999.90;;;;;;;17.17;100.00;99870.72;5092756;28;20069;-34
2021/11/06 07:04:17;;;;;;;1999.90;999.90;;;;;;;17.21;100.00;99877.16;5092594;28;20023;-33
2021/11/06 07:06:45;;;;;;;1999.90;999.90;;;;;;;17.26;100.00;99881.69;5093036;28;20024;-33
2021/11/06 07:09:10;;;;;;;1999.90;999.90;;;;;;;17.24;100.00;99881.16;5092621;28;20045;-33
2021/11/06 07:11:36;;;;;;;1999.90;999.90;;;;;;;17.25;100.00;99880.06;5092670;28;20089;-33
2021/11/06 07:14:03;;;;;;;1999.90;999.90;;;;;;;17.29;100.00;99878.41;5092432;28;20039;-34
2021/11/06 07:16:28;;;;;;;1999.90;999.90;;;;;;;17.28;100.00;99874.09;5092586;28;20024;-34
2021/11/06 07:18:54;;;;;;;1999.90;999.90;;;;;;;17.31;100.00;99879.75;5092485;28;20034;-33
2021/11/06 07:21:20;;;;;;;1999.90;999.90;;;;;;;17.25;100.00;99875.50;5092510;28;20048;-34
2021/11/06 07:23:45;;;;;;;1999.90;999.90;;;;;;;17.32;100.00;99877.84;5092339;28;20032;-33
2021/11/06 07:26:11;;;;;;;1999.90;999.90;;;;;;;17.39;100.00;99881.00;5092732;28;20111;-33
2021/11/06 07:28:37;;;;;;;1999.90;999.90;;;;;;;17.36;100.00;99888.88;5092650;28;20431;-33
2021/11/06 07:31:03;;;;;;;1999.90;999.90;;;;;;;17.36;100.00;99888.88;5092613;28;20093;-33
2021/11/06 07:33:28;;;;;;;1999.90;999.90;;;;;;;17.29;100.00;99898.06;5092133;28;20453;-33
2021/11/06 07:35:54;;;;;;;1999.90;999.90;;;;;;;17.44;100.00;99899.00;5092468;28;20028;-34
2021/11/06 07:38:20;;;;;;;1999.90;999.90;;;;;;;17.51;100.00;99904.88;5092471;28;20517;-34
2021/11/06 07:40:46;;;;;;;1999.90;999.90;;;;;;;17.54;100.00;99898.13;5092007;28;20480;-34
2021/11/06 07:43:12;;;;;;;1999.90;999.90;;;;;;;17.62;100.00;99909.06;5092071;28;20102;-33
2021/11/06 07:45:38;;;;;;;1999.90;999.90;;;;;;;17.65;100.00;99900.41;5092136;28;20036;-34
2021/11/06 07:48:03;;;;;;;1999.90;999.90;;;;;;;17.71;100.00;99905.75;5092112;28;20031;-33
2021/11/06 07:50:30;;;;;;;1999.90;999.90;;;;;;;17.81;100.00;99916.44;5092164;28;20035;-34
2021/11/06 07:52:55;;;;;;;;;;;;;;;17.92;100.00;99903.66;5092065;28;20527;-34
2021/11/06 07:55:21;;;;;;;1999.90;999.90;;;;;;;17.82;100.00;99899.97;5092357;28;19912;-33
2021/11/06 07:57:47;;;;;;;1999.90;999.90;;;;;;;17.77;100.00;99899.22;5092801;28;20507;-34
2021/11/06 08:00:17;;;;;;;1999.90;999.90;;;;;;;17.92;100.00;99909.06;5091997;28;20056;-34
2021/11/06 08:02:44;;;;;;;1999.90;999.90;;;;;;;17.97;100.00;99896.31;5092232;28;20035;-34
2021/11/06 08:05:13;;;;;;;1999.90;999.90;;;;;;;18.12;100.00;99903.41;5092268;28;20046;-34
2021/11/06 08:07:41;;;;;;;1999.90;999.90;;;;;;;18.26;100.00;99916.19;5091888;28;20028;-34
2021/11/06 08:10:08;;;;;;;1999.90;999.90;;;;;;;18.31;100.00;99921.53;5094706;28;20028;-34
2021/11/06 08:12:38;;;;;;;1999.90;999.90;;;;;;;18.48;100.00;99927.19;5095939;28;20032;-34
2021/11/06 08:15:05;;;;;;;1999.90;999.90;;;;;;;18.54;100.00;99939.56;5096828;28;20036;-34
2021/11/06 08:17:31;;;;;;;1999.90;999.90;;;;;;;18.62;100.00;99935.41;5095962;28;20028;-34
2021/11/06 08:19:57;;;;;;;1999.90;999.90;;;;;;;18.68;100.00;99942.31;5096099;28;20078;-34
2021/11/06 08:22:23;;;;;;;1999.90;999.90;;;;;;;18.77;100.00;99947.06;5096139;28;20436;-34
2021/11/06 08:24:49;;;;;;;1999.90;999.90;;;;;;;18.78;100.00;99945.97;5095723;28;20119;-35
2021/11/06 08:27:14;;;;;;;1999.90;999.90;;;;;;;18.81;100.00;99953.50;5096067;28;20028;-33
2021/11/06 08:29:41;;;;;;;1999.90;999.90;;;;;;;18.78;100.00;99956.75;5095734;28;20403;-34
2021/11/06 08:32:07;;;;;;;1999.90;999.90;;;;;;;18.84;100.00;99958.31;5095631;28;20043;-34
2021/11/06 08:34:34;;;;;;;1999.90;999.90;;;;;;;18.70;100.00;99955.53;5095755;28;20411;-33
2021/11/06 08:37:00;;;;;;;1999.90;999.90;;;;;;;18.61;100.00;99957.28;5095886;28;20032;-34
2021/11/06 08:39:25;;;;;;;1999.90;999.90;;;;;;;18.45;100.00;99959.38;5095815;28;20165;-34
2021/11/06 08:41:55;;;;;;;1999.90;999.90;;;;;;;18.49;100.00;99965.81;5095817;28;20520;-34
2021/11/06 08:44:22;;;;;;;1999.90;999.90;;;;;;;18.43;100.00;99972.38;5095324;28;20032;-34
2021/11/06 08:46:51;;;;;;;1999.90;999.90;;;;;;;18.33;100.00;99965.19;5095410;28;20043;-34
2021/11/06 08:49:18;;;;;;;1999.90;999.90;;;;;;;18.28;100.00;99971.47;5095355;28;20078;-34
2021/11/06 08:51:46;;;;;;;1999.90;999.90;;;;;;;18.32;100.00;99977.06;5095266;28;20028;-33
2021/11/06 08:54:13;;;;;;;1999.90;999.90;;;;;;;18.20;100.00;99977.47;5094832;28;20052;-35
2021/11/06 08:56:39;;;;;;;;;;;;;;;18.23;100.00;99985.00;5095957;28;20020;-34
2021/11/06 08:59:04;;;;;;;1999.90;999.90;;;;;;;18.13;100.00;99993.19;5095537;28;19912;-35
2021/11/06 09:01:30;;;;;;;1999.90;999.90;;;;;;;18.11;100.00;99981.91;5095166;28;20028;-34
2021/11/06 09:03:57;;;;;;;1999.90;999.90;;;;;;;18.19;100.00;99992.88;5095025;28;20039;-34
2021/11/06 09:06:24;;;;;;;1999.90;999.90;;;;;;;18.05;100.00;99999.25;5095128;28;20149;-34
2021/11/06 09:08:50;;;;;;;1999.90;999.90;;;;;;;17.95;100.00;99998.25;5095064;28;20103;-34
2021/11/06 09:11:16;;;;;;;;;;;;;;;17.70;100.00;99995.78;5095682;28;20047;-34
2021/11/06 09:13:50;;;;;;;1999.90;999.90;;;;;;;17.80;100.00;99998.38;5094627;28;19916;-34
2021/11/06 09:16:17;;;;;;;1999.90;999.90;;;;;;;17.93;100.00;100002.31;5094831;28;20043;-34
2021/11/06 09:18:43;;;;;;;1999.90;999.90;;;;;;;17.87;100.00;100009.63;5094779;28;20034;-34
2021/11/06 09:21:14;;;;;;;;;;;;;;;17.84;100.00;100008.31;5094467;28;20039;-34
2021/11/06 09:23:41;;;;;;;1999.90;999.90;;;;;;;17.93;100.00;100005.81;5094709;28;19912;-34
2021/11/06 09:26:07;;;;;;;1999.90;999.90;;;;;;;18.02;100.00;100014.88;5094656;28;20028;-34
2021/11/06 09:28:38;;;;;;;1999.90;999.90;;;;;;;17.99;100.00;100012.75;5094612;28;20024;-33
2021/11/06 09:31:03;;;;;;;1999.90;999.90;;;;;;;17.99;100.00;100018.16;5094614;28;20542;-34
2021/11/06 09:33:29;;;;;;;1999.90;999.90;;;;;;;17.90;100.00;100019.03;5095106;28;20028;-34
2021/11/06 09:35:55;;;;;;;1999.90;999.90;;;;;;;17.87;100.00;100012.31;5094465;28;20020;-34
2021/11/06 09:38:20;;;;;;;1999.90;999.90;;;;;;;17.90;100.00;100014.47;5095263;28;20031;-35
2021/11/06 09:40:46;;;;;;;1999.90;999.90;;;;;;;17.84;100.00;100010.19;5094326;28;20039;-34
2021/11/06 09:43:15;;;;;;;1999.90;999.90;;;;;;;17.75;100.00;100018.09;5094556;28;20020;-34
2021/11/06 09:45:42;;;;;;;1999.90;999.90;;;;;;;17.74;100.00;100029.16;5094288;28;20488;-34
2021/11/06 09:48:08;;;;;;;1999.90;999.90;;;;;;;17.79;100.00;100029.09;5094503;28;20095;-33
2021/11/06 09:50:34;;;;;;;1999.90;999.90;;;;;;;17.79;100.00;100024.50;5094513;28;20453;-34
2021/11/06 09:52:59;;;;;;;1999.90;999.90;;;;;;;17.84;100.00;100031.78;5093935;28;20121;-34
2021/11/06 09:55:25;;;;;;;1999.90;999.90;;;;;;;17.94;100.00;100028.19;5094410;28;20487;-34
2021/11/06 09:57:51;;;;;;;1999.90;999.90;;;;;;;18.06;100.00;100033.19;5094123;28;20430;-34
2021/11/06 10:00:19;;;;;;;1999.90;999.90;;;;;;;18.12;100.00;100037.47;5093836;28;20043;-33
2021/11/06 10:02:45;;;;;;;1999.90;999.90;;;;;;;18.18;100.00;100052.50;5094283;28;20377;-34
2021/11/06 10:05:12;;;;;;;1999.90;999.90;;;;;;;18.30;100.00;100046.69;5094139;28;20077;-34
2021/11/06 10:07:39;;;;;;;1999.90;999.90;;;;;;;18.39;100.00;100046.88;5093801;28;20032;-34
2021/11/06 10:10:09;;;;;;;1999.90;999.90;;;;;;;18.47;100.00;100046.22;5093826;28;20549;-34
2021/11/06 10:12:55;;;;;;;1999.90;999.90;;;;;;;18.47;100.00;100038.94;5093953;28;20050;-34
2021/11/06 10:15:23;;;;;;;1999.90;999.90;;;;;;;18.48;100.00;100037.84;5093673;28;20112;-33
2021/11/06 10:17:50;;;;;;;1999.90;999.90;;;;;;;18.38;100.00;100040.66;5093923;28;20032;-34
2021/11/06 10:20:30;;;;;;;1999.90;999.90;;;;;;;18.60;100.00;100025.84;5093584;28;20042;-34
2021/11/06 10:23:05;;;;;;;1999.90;999.90;;;;;;;18.68;100.00;100020.59;5093535;28;20036;-34
2021/11/06 10:25:32;;;;;;;1999.90;999.90;;;;;;;18.52;100.00;100024.59;5093455;28;20504;-34
2021/11/06 10:28:03;;;;;;;1999.90;999.90;;;;;;;18.49;100.00;100035.97;5093410;28;20395;-34
2021/11/06 10:30:41;;;;;;;1999.90;999.90;;;;;;;18.38;100.00;100045.25;5093412;28;20031;-34
2021/11/06 10:33:16;;;;;;;1999.90;999.90;;;;;;;18.46;100.00;100044.63;5092191;28;20024;-34
2021/11/06 10:35:53;;;;;;;1999.90;999.90;;;;;;;18.47;100.00;100052.44;5093300;28;20028;-34
2021/11/06 10:38:23;;;;;;;1999.90;999.90;;;;;;;18.44;100.00;100060.28;5093218;28;20016;-34
2021/11/06 10:40:52;;;;;;;1999.90;999.90;;;;;;;18.45;100.00;100060.00;5093446;28;20024;-34
2021/11/06 10:43:20;;;;;;;1999.90;999.90;;;;;;;18.49;100.00;100052.16;5093073;28;20052;-34
2021/11/06 10:45:49;;;;;;;1999.90;999.90;;;;;;;18.39;100.00;100060.38;5093016;28;20511;-34